Time;durP1;ratioP1;P1;durP2;ratioP2;P2;SDS_P1;SDS_P2;PMS_P1;PMS_P2;Temp;Humidity;BMP_temperature;BMP_pressure;BME280_temperature;BME280_humidity;BME280_pressure;Samples;Min_cycle;Max_cycle;Signal;HPM_P1;HPM_P2
2022/09/16 00:00:52;;;;;;;1.67;0.68;;;;;;;12.61;63.02;99559.72;1671477;85;21476;-73
2022/09/16 00:03:37;;;;;;;3.33;0.80;;;;;;;12.56;63.08;99559.91;1671312;82;21114;-73
2022/09/16 00:06:26;;;;;;;5.28;1.00;;;;;;;12.57;63.13;99562.89;1664812;84;21062;-73
2022/09/16 00:09:12;;;;;;;3.17;0.72;;;;;;;12.51;63.15;99555.81;1671001;82;21602;-73
2022/09/16 00:11:56;;;;;;;2.65;1.00;;;;;;;12.52;63.23;99563.53;1666392;85;21031;-73
2022/09/16 00:14:42;;;;;;;3.02;0.50;;;;;;;12.49;63.25;99556.32;1666913;83;21018;-73
2022/09/16 00:17:28;;;;;;;2.98;0.88;;;;;;;12.49;63.30;99567.54;1679014;85;21665;-73
2022/09/16 00:20:13;;;;;;;;;;;;;;;12.43;63.33;99569.11;1672959;83;21062;-73
2022/09/16 00:22:58;;;;;;;3.83;0.80;;;;;;;12.40;63.76;99570.98;1675997;84;20179;-73
2022/09/16 00:25:43;;;;;;;2.65;0.80;;;;;;;12.39;63.42;99574.03;1666806;84;21062;-73
2022/09/16 00:28:29;;;;;;;3.50;0.70;;;;;;;12.36;63.46;99572.86;1673939;85;21614;-73
2022/09/16 00:31:14;;;;;;;2.25;0.70;;;;;;;12.35;63.49;99575.05;1664912;84;21042;-73
2022/09/16 00:33:59;;;;;;;1.07;0.60;;;;;;;12.32;63.58;99583.41;1668741;85;21051;-73
2022/09/16 00:36:44;;;;;;;0.95;0.80;;;;;;;12.27;63.59;99578.41;1674195;83;21114;-73
2022/09/16 00:39:30;;;;;;;1.95;0.80;;;;;;;12.24;63.67;99579.37;1673440;82;21043;-73
2022/09/16 00:42:17;;;;;;;2.30;0.70;;;;;;;12.22;63.72;99583.77;1667236;85;21070;-73
2022/09/16 00:45:05;;;;;;;;;;;;;;;12.19;63.72;99577.86;1673337;84;21090;-73
2022/09/16 00:48:04;;;;;;;3.50;1.20;;;;;;;12.14;64.20;99585.81;1672178;85;20187;-73
2022/09/16 00:51:03;;;;;;;1.00;0.68;;;;;;;12.12;63.81;99581.59;1661690;84;21122;-73
2022/09/16 00:53:55;;;;;;;1.10;0.78;;;;;;;12.10;63.83;99573.03;1667881;84;21544;-73
2022/09/16 00:56:44;;;;;;;1.62;0.50;;;;;;;12.07;63.88;99578.33;1661878;84;21107;-73
2022/09/16 00:59:35;;;;;;;3.35;0.55;;;;;;;12.06;63.96;99576.64;1633133;84;21069;-73
2022/09/16 01:02:21;;;;;;;3.05;1.22;;;;;;;12.03;63.99;99581.94;1629607;85;21097;-73
2022/09/16 01:05:15;;;;;;;2.33;1.07;;;;;;;11.98;64.06;99578.23;1630549;85;21110;-73
2022/09/16 01:08:01;;;;;;;2.85;0.60;;;;;;;11.95;64.05;99582.27;1635123;85;21054;-73
2022/09/16 01:10:46;;;;;;;3.62;0.68;;;;;;;11.95;64.09;99583.56;1628866;85;21073;-73
2022/09/16 01:13:31;;;;;;;2.42;0.75;;;;;;;11.91;64.17;99584.13;1633939;87;22165;-73
2022/09/16 01:16:33;;;;;;;0.68;0.68;;;;;;;11.90;64.21;99585.48;1634373;87;21054;-73
2022/09/16 01:19:45;;;;;;;3.55;0.70;;;;;;;11.92;64.28;99587.56;1631893;85;21121;-73
2022/09/16 01:22:58;;;;;;;2.40;0.80;;;;;;;11.89;64.31;99591.11;1634958;85;21027;-73
2022/09/16 01:26:07;;;;;;;3.20;0.80;;;;;;;11.86;64.36;99591.68;1626147;87;21569;-73
2022/09/16 01:29:18;;;;;;;5.85;0.75;;;;;;;11.82;64.48;99597.42;1637251;85;21043;-73
2022/09/16 01:32:30;;;;;;;2.95;0.70;;;;;;;11.81;64.53;99593.14;1603085;85;21058;-73
2022/09/16 01:35:44;;;;;;;4.58;0.90;;;;;;;11.80;64.54;99590.61;1619599;87;21069;-73
2022/09/16 01:39:07;;;;;;;3.47;0.65;;;;;;;11.74;64.64;99589.06;1631452;85;21158;-73
2022/09/16 01:42:06;;;;;;;2.25;0.53;;;;;;;11.73;64.71;99577.02;1625156;87;21066;-73
2022/09/16 01:45:02;;;;;;;1.92;0.78;;;;;;;11.72;64.76;99573.19;1631822;85;21055;-73
2022/09/16 01:48:13;;;;;;;3.50;0.82;;;;;;;11.72;64.79;99577.06;1639460;85;21145;-73
2022/09/16 01:51:28;;;;;;;4.45;1.05;;;;;;;11.70;64.86;99583.59;1633795;85;21061;-73
2022/09/16 01:54:42;;;;;;;1.55;0.78;;;;;;;11.70;64.91;99586.19;1636339;85;21061;-73
2022/09/16 01:57:53;;;;;;;2.15;0.82;;;;;;;11.70;64.99;99580.16;1625939;85;21551;-73
2022/09/16 02:00:41;;;;;;;2.30;0.93;;;;;;;11.72;64.98;99586.13;1676911;83;21074;-73
2022/09/16 02:03:32;;;;;;;2.12;0.82;;;;;;;11.71;65.07;99594.80;1675909;84;21050;-73
2022/09/16 02:06:21;;;;;;;2.52;0.93;;;;;;;11.70;65.09;99588.78;1673740;84;21559;-73
2022/09/16 02:09:22;;;;;;;3.58;1.00;;;;;;;11.66;65.11;99589.80;1674469;83;21555;-73
2022/09/16 02:12:15;;;;;;;2.27;1.00;;;;;;;11.64;65.11;99596.77;1675898;83;21062;-73
2022/09/16 02:15:05;;;;;;;2.52;1.00;;;;;;;11.63;65.24;99596.37;1674806;83;21067;-73
2022/09/16 02:17:55;;;;;;;3.40;0.93;;;;;;;11.61;65.25;99594.30;1675931;83;20983;-73
2022/09/16 02:20:44;;;;;;;2.75;0.85;;;;;;;11.60;65.33;99602.96;1672589;83;21129;-73
2022/09/16 02:23:35;;;;;;;2.30;0.80;;;;;;;11.58;65.34;99599.58;1670914;83;21062;-73
2022/09/16 02:26:24;;;;;;;2.08;0.93;;;;;;;11.54;65.34;99598.84;1677028;83;21086;-73
2022/09/16 02:29:14;;;;;;;5.78;0.85;;;;;;;11.51;65.44;99602.00;1667328;83;21069;-74
2022/09/16 02:32:03;;;;;;;3.62;0.98;;;;;;;11.48;65.47;99599.52;1672787;83;21042;-74
2022/09/16 02:34:51;;;;;;;4.33;1.00;;;;;;;11.44;65.52;99599.23;1671503;83;21102;-74
2022/09/16 02:38:02;;;;;;;5.40;1.32;;;;;;;11.43;65.59;99597.58;1678420;83;21527;-74
2022/09/16 02:40:56;;;;;;;5.20;1.10;;;;;;;11.42;65.58;99599.77;1674451;83;21054;-73
2022/09/16 02:43:45;;;;;;;4.12;0.95;;;;;;;11.40;65.62;99603.70;1673037;83;21539;-73
2022/09/16 02:46:41;;;;;;;1.45;0.70;;;;;;;11.40;65.72;99602.86;1670931;83;21598;-73
2022/09/16 02:49:35;;;;;;;3.22;1.02;;;;;;;11.40;65.75;99600.27;1682060;82;21086;-73
2022/09/16 02:52:55;;;;;;;7.08;1.17;;;;;;;11.39;65.76;99598.13;1676573;83;21058;-73
2022/09/16 02:55:51;;;;;;;4.92;0.90;;;;;;;11.37;65.79;99601.22;1673699;83;21138;-73
2022/09/16 02:58:36;;;;;;;9.78;1.22;;;;;;;11.32;65.86;99604.87;1673148;83;21193;-73
2022/09/16 03:01:23;;;;;;;4.42;0.90;;;;;;;11.30;65.91;99602.34;1674536;83;21102;-73
2022/09/16 03:04:15;;;;;;;4.90;1.20;;;;;;;11.27;65.91;99598.11;1671453;83;21339;-73
2022/09/16 03:07:07;;;;;;;2.33;0.78;;;;;;;11.27;65.99;99603.73;1670217;83;21055;-73
2022/09/16 03:09:53;;;;;;;4.30;1.42;;;;;;;11.27;66.00;99598.11;1670844;83;21066;-73
2022/09/16 03:12:49;;;;;;;8.33;1.20;;;;;;;11.23;65.97;99596.53;1677465;84;21086;-73
2022/09/16 03:15:54;;;;;;;4.87;0.90;;;;;;;11.22;66.10;99604.34;1667244;83;21586;-73
2022/09/16 03:19:02;;;;;;;3.57;0.77;;;;;;;11.19;66.13;99604.45;1672341;83;21057;-75
2022/09/16 03:22:11;;;;;;;3.62;1.32;;;;;;;11.17;66.19;99601.91;1669856;83;21827;-75
2022/09/16 03:25:19;;;;;;;6.25;1.30;;;;;;;11.16;66.19;99599.38;1670505;83;21058;-75
2022/09/16 03:28:15;;;;;;;4.97;0.72;;;;;;;11.15;66.23;99599.83;1671691;84;21110;-74
2022/09/16 03:31:12;;;;;;;2.85;0.82;;;;;;;11.11;66.27;99599.53;1671437;83;21066;-74
2022/09/16 03:34:25;;;;;;;5.33;0.85;;;;;;;11.10;66.31;99600.88;1663586;83;21070;-73
2022/09/16 03:37:14;;;;;;;5.58;1.42;;;;;;;11.08;66.34;99608.70;1669781;84;21574;-73
2022/09/16 03:40:03;;;;;;;6.25;1.20;;;;;;;11.09;66.39;99614.27;1666734;83;21550;-73
2022/09/16 03:42:48;;;;;;;4.08;1.12;;;;;;;11.06;66.43;99609.64;1676261;84;21066;-73
2022/09/16 03:45:33;;;;;;;3.55;1.20;;;;;;;11.06;66.45;99604.02;1677808;82;21066;-74
2022/09/16 03:48:19;;;;;;;4.60;1.00;;;;;;;11.03;66.49;99604.13;1677470;83;21081;-74
2022/09/16 03:51:04;;;;;;;4.30;1.07;;;;;;;11.03;66.53;99605.87;1667237;83;21230;-73
2022/09/16 03:53:52;;;;;;;5.45;1.20;;;;;;;11.03;66.57;99610.59;1664902;84;21070;-73
2022/09/16 03:56:36;;;;;;;8.78;1.20;;;;;;;11.04;66.59;99605.81;1672593;83;21055;-73
2022/09/16 03:59:22;;;;;;;12.25;1.25;;;;;;;11.04;66.66;99610.98;1675104;83;21044;-73
2022/09/16 04:02:07;;;;;;;4.22;0.80;;;;;;;11.03;66.67;99614.47;1674396;84;21506;-73
2022/09/16 04:04:52;;;;;;;4.62;1.22;;;;;;;11.02;66.72;99610.20;1679912;83;21047;-73
2022/09/16 04:07:38;;;;;;;5.78;1.12;;;;;;;11.03;66.76;99604.58;1674861;84;21131;-73
2022/09/16 04:10:23;;;;;;;3.83;1.37;;;;;;;11.03;66.77;99613.18;1665827;83;21143;-73
2022/09/16 04:13:08;;;;;;;4.60;1.05;;;;;;;11.03;66.80;99609.75;1679750;83;21128;-73
2022/09/16 04:15:53;;;;;;;6.83;1.05;;;;;;;10.99;66.83;99605.13;1669973;83;21629;-73
2022/09/16 04:18:38;;;;;;;4.75;1.17;;;;;;;11.00;66.89;99602.09;1681074;83;21157;-73
2022/09/16 04:21:24;;;;;;;4.50;1.07;;;;;;;10.98;66.90;99602.14;1671067;84;21491;-72
2022/09/16 04:24:09;;;;;;;5.50;1.15;;;;;;;10.98;66.89;99598.27;1672055;83;21700;-72
2022/09/16 04:26:54;;;;;;;3.55;0.98;;;;;;;10.98;66.95;99597.42;1671667;83;21157;-72
2022/09/16 04:29:39;;;;;;;4.47;0.93;;;;;;;10.93;67.03;99598.41;1668382;84;22305;-71
2022/09/16 04:32:24;;;;;;;6.70;1.15;;;;;;;10.93;67.06;99597.58;1679225;83;21097;-72
2022/09/16 04:35:09;;;;;;;3.67;1.10;;;;;;;10.94;67.12;99596.67;1675565;83;21039;-72
2022/09/16 04:37:55;;;;;;;4.35;1.15;;;;;;;10.95;67.12;99600.50;1678505;83;21062;-72
2022/09/16 04:40:40;;;;;;;4.08;1.27;;;;;;;10.94;67.17;99601.84;1671379;83;21042;-71
2022/09/16 04:43:25;;;;;;;3.37;1.17;;;;;;;10.95;67.19;99601.80;1674684;83;21069;-71
2022/09/16 04:46:10;;;;;;;4.00;1.40;;;;;;;10.92;67.20;99607.07;1669147;83;21098;-72
2022/09/16 04:48:57;;;;;;;2.63;0.90;;;;;;;10.90;67.23;99599.84;1668010;84;21041;-72
2022/09/16 04:51:42;;;;;;;;;;;;;;;10.88;67.40;99602.09;1677731;83;21557;-76
2022/09/16 04:54:27;;;;;;;6.08;1.10;;;;;;;10.86;67.89;99611.19;1668429;83;20197;-72
2022/09/16 04:57:12;;;;;;;6.22;1.52;;;;;;;10.87;67.48;99606.86;1665263;83;21104;-72
2022/09/16 04:59:57;;;;;;;2.90;1.07;;;;;;;10.89;67.47;99605.06;1665065;83;21106;-71
2022/09/16 05:02:44;;;;;;;4.92;1.40;;;;;;;10.90;67.44;99603.73;1661191;83;21086;-71
2022/09/16 05:05:29;;;;;;;8.40;1.75;;;;;;;10.93;67.55;99610.05;1665007;83;21054;-71
2022/09/16 05:08:15;;;;;;;5.15;1.12;;;;;;;10.97;67.58;99608.21;1661533;84;21074;-71
2022/09/16 05:11:08;;;;;;;4.77;1.33;;;;;;;11.02;67.67;99606.77;1661714;85;21261;-71
2022/09/16 05:13:54;;;;;;;7.42;1.30;;;;;;;11.04;67.65;99605.81;1661195;83;21808;-71
2022/09/16 05:16:39;;;;;;;4.75;1.47;;;;;;;11.08;67.67;99616.45;1660290;84;21155;-71
2022/09/16 05:19:25;;;;;;;5.33;1.37;;;;;;;11.11;67.72;99606.00;1674539;83;20994;-71
2022/09/16 05:22:09;;;;;;;2.02;1.12;;;;;;;11.13;67.71;99619.73;1672883;83;21063;-71
2022/09/16 05:24:54;;;;;;;3.08;1.30;;;;;;;11.14;67.80;99608.48;1671260;83;21055;-73
2022/09/16 05:27:40;;;;;;;2.52;1.07;;;;;;;11.18;67.88;99608.78;1670519;84;21070;-73
2022/09/16 05:30:25;;;;;;;4.05;1.40;;;;;;;11.21;67.95;99601.36;1660505;83;21075;-73
2022/09/16 05:33:10;;;;;;;5.95;1.25;;;;;;;11.23;68.00;99604.29;1662709;83;22004;-73
2022/09/16 05:35:55;;;;;;;5.42;2.70;;;;;;;11.27;68.02;99606.33;1665119;84;21122;-73
2022/09/16 05:38:41;;;;;;;3.62;0.98;;;;;;;11.33;68.09;99617.75;1678111;83;21115;-72
2022/09/16 05:41:26;;;;;;;6.03;1.70;;;;;;;11.38;68.23;99608.09;1665230;83;21560;-71
2022/09/16 05:44:11;;;;;;;4.22;1.32;;;;;;;11.46;68.20;99612.52;1667234;84;21087;-71
2022/09/16 05:46:57;;;;;;;2.37;1.25;;;;;;;11.51;68.38;99616.23;1656189;84;21581;-71
2022/09/16 05:49:42;;;;;;;4.55;1.45;;;;;;;11.56;68.32;99613.03;1659830;84;21144;-71
2022/09/16 05:52:27;;;;;;;5.70;1.67;;;;;;;11.66;68.43;99614.84;1662359;83;21816;-71
2022/09/16 05:55:12;;;;;;;5.50;1.37;;;;;;;11.74;68.48;99607.19;1662870;83;21051;-71
2022/09/16 05:57:57;;;;;;;6.83;2.58;;;;;;;11.87;68.44;99612.34;1662226;83;21181;-71
2022/09/16 06:00:42;;;;;;;2.22;1.30;;;;;;;12.05;68.55;99611.23;1672945;84;21076;-71
2022/09/16 06:03:29;;;;;;;4.75;1.62;;;;;;;12.30;68.59;99615.02;1671353;83;21078;-71
2022/09/16 06:06:26;;;;;;;5.35;1.60;;;;;;;12.58;68.90;99619.03;1663991;84;20963;-71
2022/09/16 06:09:20;;;;;;;4.33;1.52;;;;;;;13.02;68.61;99620.23;1668653;83;21014;-71
2022/09/16 06:12:05;;;;;;;2.87;1.42;;;;;;;13.37;68.62;99614.88;1663533;84;21571;-71
2022/09/16 06:14:50;;;;;;;3.13;1.50;;;;;;;13.74;68.41;99617.98;1669035;84;21579;-71
2022/09/16 06:17:35;;;;;;;4.53;1.22;;;;;;;13.87;68.38;99620.87;1675197;84;21334;-72
2022/09/16 06:20:21;;;;;;;3.85;1.72;;;;;;;14.13;68.22;99619.65;1662722;84;21102;-72
2022/09/16 06:23:06;;;;;;;4.47;1.60;;;;;;;14.13;68.20;99609.25;1672998;85;21110;-72
2022/09/16 06:26:11;;;;;;;5.40;1.65;;;;;;;14.51;68.58;99613.52;1674831;84;21127;-71
2022/09/16 06:28:56;;;;;;;3.15;1.22;;;;;;;14.66;68.20;99608.47;1673419;84;21126;-71
2022/09/16 06:31:41;;;;;;;4.12;1.47;;;;;;;14.95;67.99;99604.43;1664991;84;21051;-72
2022/09/16 06:34:27;;;;;;;3.72;1.55;;;;;;;15.31;68.33;99599.09;1669177;84;20964;-72
2022/09/16 06:37:13;;;;;;;4.47;1.50;;;;;;;15.97;68.28;99595.16;1660002;83;21109;-72
2022/09/16 06:39:58;;;;;;;6.97;1.52;;;;;;;16.60;68.30;99596.40;1680284;82;21052;-72
2022/09/16 06:42:43;;;;;;;4.25;1.40;;;;;;;17.39;67.94;99599.55;1675170;83;21134;-72
2022/09/16 06:45:28;;;;;;;8.70;1.42;;;;;;;17.42;67.73;99598.91;1665693;85;21054;-71
2022/09/16 06:48:13;;;;;;;2.70;1.42;;;;;;;18.20;67.77;99601.90;1664152;85;21062;-72
2022/09/16 06:51:07;;;;;;;3.25;1.50;;;;;;;18.32;67.12;99599.81;1670100;85;21044;-72
2022/09/16 06:53:56;;;;;;;4.12;1.02;;;;;;;18.57;67.59;99595.14;1641078;85;21031;-72
2022/09/16 06:56:41;;;;;;;5.12;1.50;;;;;;;19.20;67.19;99594.92;1661651;85;21130;-72
2022/09/16 06:59:26;;;;;;;6.37;1.75;;;;;;;19.31;67.14;99598.45;1659832;84;21110;-72
2022/09/16 07:02:11;;;;;;;3.50;1.27;;;;;;;19.99;67.01;99599.86;1662519;83;21487;-72
2022/09/16 07:04:57;;;;;;;3.58;1.20;;;;;;;20.36;66.41;99596.25;1667272;84;21113;-72
2022/09/16 07:07:42;;;;;;;5.47;1.50;;;;;;;20.93;66.07;99598.17;1674793;83;21752;-72
2022/09/16 07:10:29;;;;;;;1.92;0.85;;;;;;;21.44;66.13;99607.02;1653612;83;21539;-72
2022/09/16 07:13:14;;;;;;;;;;;;;;;21.25;66.24;99602.35;1670311;83;21119;-72
2022/09/16 07:16:02;;;;;;;4.15;1.20;;;;;;;21.65;62.99;99599.25;1664686;83;20177;-72
2022/09/16 07:18:52;;;;;;;3.87;1.40;;;;;;;21.37;64.90;99601.86;1675342;84;21051;-72
2022/09/16 07:21:40;;;;;;;10.13;3.40;;;;;;;21.05;64.98;99602.98;1661281;83;21130;-72
2022/09/16 07:24:25;;;;;;;4.90;1.25;;;;;;;21.21;65.05;99601.35;1667945;83;21039;-72
2022/09/16 07:27:10;;;;;;;3.45;1.22;;;;;;;21.68;64.31;99596.38;1664313;84;21568;-72
2022/09/16 07:29:55;;;;;;;4.37;1.30;;;;;;;22.19;64.26;99600.65;1665035;84;21333;-72
2022/09/16 07:32:40;;;;;;;3.90;1.12;;;;;;;22.10;62.67;99604.85;1665252;85;21082;-72
2022/09/16 07:35:26;;;;;;;2.90;1.05;;;;;;;21.98;62.88;99607.11;1663936;84;21114;-73
2022/09/16 07:38:11;;;;;;;9.23;1.57;;;;;;;22.59;63.20;99607.94;1682023;83;21055;-75
2022/09/16 07:41:10;;;;;;;5.47;1.40;;;;;;;23.18;62.21;99614.85;1666373;83;21587;-75
2022/09/16 07:43:58;;;;;;;3.27;1.02;;;;;;;22.89;62.06;99609.84;1659750;83;21122;-74
2022/09/16 07:46:43;;;;;;;3.55;1.20;;;;;;;22.80;61.88;99616.75;1662488;85;21070;-73
2022/09/16 07:49:28;;;;;;;3.80;1.20;;;;;;;22.17;61.33;99613.58;1662607;84;21066;-73
2022/09/16 07:52:13;;;;;;;4.10;1.80;;;;;;;22.02;61.18;99620.90;1659049;83;21066;-73
2022/09/16 07:54:59;;;;;;;2.63;1.00;;;;;;;21.46;60.63;99619.09;1672047;84;21519;-73
2022/09/16 07:57:43;;;;;;;6.80;1.30;;;;;;;21.04;61.11;99619.23;1661899;82;21560;-73
2022/09/16 08:00:28;;;;;;;3.35;1.37;;;;;;;20.93;60.86;99621.83;1655308;84;21058;-73
2022/09/16 08:03:14;;;;;;;5.80;1.20;;;;;;;20.63;60.52;99630.20;1635320;85;22315;-73
2022/09/16 08:06:02;;;;;;;5.08;0.90;;;;;;;20.59;60.74;99620.03;1631208;87;21677;-73
2022/09/16 08:08:50;;;;;;;4.08;1.40;;;;;;;20.37;59.80;99626.81;1629603;85;20964;-72
2022/09/16 08:11:34;;;;;;;2.22;1.02;;;;;;;21.31;60.75;99633.92;1632657;87;21441;-73
2022/09/16 08:14:19;;;;;;;2.35;1.10;;;;;;;22.08;59.80;99627.83;1631407;87;20987;-75
2022/09/16 08:17:04;;;;;;;6.10;0.93;;;;;;;22.86;58.68;99623.32;1633501;85;21615;-77
2022/09/16 08:19:49;;;;;;;3.15;1.02;;;;;;;22.22;58.69;99629.38;1629502;87;21062;-74
2022/09/16 08:22:35;;;;;;;4.58;1.32;;;;;;;21.54;57.92;99628.19;1629135;87;21141;-79
2022/09/16 08:25:21;;;;;;;5.70;1.10;;;;;;;21.29;59.08;99628.77;1633766;85;21119;-78
2022/09/16 08:28:14;;;;;;;1.62;0.98;;;;;;;23.31;57.40;99629.16;1641061;85;21618;-77
2022/09/16 08:31:02;;;;;;;1.92;1.00;;;;;;;24.97;57.37;99622.39;1636830;85;21076;-77
2022/09/16 08:33:48;;;;;;;2.72;1.20;;;;;;;24.75;56.50;99626.15;1631302;85;21686;-78
2022/09/16 08:36:33;;;;;;;2.12;0.80;;;;;;;23.83;57.06;99620.75;1633673;85;21098;-77
2022/09/16 08:39:20;;;;;;;5.30;1.10;;;;;;;23.01;57.35;99622.85;1648853;85;21090;-78
2022/09/16 08:42:28;;;;;;;3.50;1.25;;;;;;;22.31;57.43;99615.95;1623510;85;21058;-77
2022/09/16 08:45:41;;;;;;;3.27;1.22;;;;;;;21.76;57.13;99624.25;1638523;87;21431;-77
2022/09/16 08:48:49;;;;;;;2.30;1.15;;;;;;;21.03;56.52;99622.81;1638032;85;21066;-78
2022/09/16 08:51:35;;;;;;;3.45;1.37;;;;;;;20.45;56.43;99629.75;1633679;85;21554;-77
2022/09/16 08:54:32;;;;;;;7.00;0.95;;;;;;;19.89;55.95;99626.38;1644356;85;36288;-77
2022/09/16 08:57:29;;;;;;;4.12;1.20;;;;;;;19.55;55.98;99635.30;1638990;86;21102;-76
2022/09/16 09:00:18;;;;;;;3.40;1.00;;;;;;;19.13;55.65;99629.39;1628750;85;21166;-77
2022/09/16 09:03:18;;;;;;;2.75;0.93;;;;;;;18.71;55.55;99629.16;1680731;83;21110;-78
2022/09/16 09:06:14;;;;;;;2.40;0.88;;;;;;;18.35;55.36;99615.32;1664336;82;21014;-77
2022/09/16 09:09:14;;;;;;;5.97;1.40;;;;;;;18.09;55.51;99621.39;1668165;83;21057;-76
2022/09/16 09:12:20;;;;;;;3.30;1.02;;;;;;;17.85;55.23;99615.44;1670441;83;21638;-76
2022/09/16 09:15:33;;;;;;;4.03;1.12;;;;;;;17.53;55.22;99619.17;1657837;84;21369;-77
2022/09/16 09:18:36;;;;;;;2.10;0.90;;;;;;;17.35;55.14;99605.90;1681286;83;21014;-77
2022/09/16 09:21:42;;;;;;;4.55;0.80;;;;;;;17.10;54.92;99603.47;1682644;83;21066;-77
2022/09/16 09:24:44;;;;;;;1.53;0.73;;;;;;;16.91;54.95;99604.63;1674517;85;21106;-76
2022/09/16 09:27:59;;;;;;;1.80;0.75;;;;;;;16.78;54.85;99604.48;1665399;83;21157;-77
2022/09/16 09:30:56;;;;;;;3.37;1.10;;;;;;;16.66;54.87;99606.03;1663015;83;21113;-77
2022/09/16 09:34:21;;;;;;;3.45;0.98;;;;;;;16.74;54.94;99604.28;1667696;83;21535;-77
2022/09/16 09:37:35;;;;;;;2.47;1.02;;;;;;;16.80;55.01;99611.30;1668802;83;21150;-76
2022/09/16 09:40:47;;;;;;;3.47;1.00;;;;;;;16.78;54.82;99605.33;1663198;84;21082;-77
2022/09/16 09:43:39;;;;;;;2.10;0.80;;;;;;;16.82;54.77;99591.17;1661745;84;21091;-76
2022/09/16 09:46:30;;;;;;;4.45;1.32;;;;;;;16.93;54.84;99595.77;1672549;83;21043;-77
2022/09/16 09:49:32;;;;;;;4.08;1.00;;;;;;;17.04;54.64;99588.16;1677421;83;21380;-77
2022/09/16 09:52:23;;;;;;;3.00;0.98;;;;;;;17.05;54.61;99603.36;1670192;83;21478;-76
2022/09/16 09:55:18;;;;;;;5.83;1.20;;;;;;;16.98;54.50;99601.56;1660688;85;21114;-76
2022/09/16 09:58:33;;;;;;;2.15;0.75;;;;;;;16.89;54.56;99600.80;1670096;83;21134;-77
2022/09/16 10:01:18;;;;;;;3.10;0.95;;;;;;;16.90;54.65;99596.41;1662703;84;21087;-77
2022/09/16 10:04:11;;;;;;;4.25;1.02;;;;;;;16.92;54.37;99587.56;1671459;84;21139;-77
2022/09/16 10:06:57;;;;;;;1.65;0.78;;;;;;;16.84;54.40;99593.69;1674517;83;21055;-77
2022/09/16 10:10:19;;;;;;;2.87;0.90;;;;;;;16.82;54.32;99590.33;1670594;84;21789;-77
2022/09/16 10:13:16;;;;;;;1.22;0.60;;;;;;;16.79;54.37;99593.95;1667608;83;21690;-77
2022/09/16 10:16:12;;;;;;;1.72;0.70;;;;;;;16.70;54.34;99589.73;1666503;84;20999;-77
2022/09/16 10:19:08;;;;;;;2.98;0.82;;;;;;;16.54;54.33;99593.67;1665411;83;21646;-77
2022/09/16 10:21:57;;;;;;;4.75;1.00;;;;;;;16.52;54.43;99590.31;1663037;85;21106;-77
2022/09/16 10:24:42;;;;;;;2.77;0.88;;;;;;;16.56;54.36;99586.59;1652459;84;21581;-77
2022/09/16 10:27:36;;;;;;;5.35;0.78;;;;;;;16.54;54.40;99588.45;1671264;84;21408;-77
2022/09/16 10:30:21;;;;;;;2.12;0.72;;;;;;;16.62;54.50;99593.23;1665654;83;20959;-77
2022/09/16 10:33:17;;;;;;;3.42;0.98;;;;;;;16.76;54.55;99573.71;1673191;83;21571;-77
2022/09/16 10:36:07;;;;;;;2.75;0.80;;;;;;;16.95;54.53;99597.83;1664270;83;20935;-77
2022/09/16 10:38:59;;;;;;;3.05;1.07;;;;;;;17.06;54.40;99588.91;1676080;83;20968;-77
2022/09/16 10:41:45;;;;;;;3.47;1.02;;;;;;;17.20;54.36;99601.12;1669278;85;21038;-77
2022/09/16 10:44:33;;;;;;;6.62;0.80;;;;;;;17.23;54.09;99583.11;1677880;82;21413;-77
2022/09/16 10:47:27;;;;;;;6.08;1.10;;;;;;;17.15;54.07;99592.74;1674436;84;20932;-76
2022/09/16 10:50:18;;;;;;;5.28;0.78;;;;;;;17.09;54.08;99608.31;1675200;84;21500;-76
2022/09/16 10:53:07;;;;;;;3.62;0.90;;;;;;;16.95;53.95;99600.44;1663539;84;20963;-76
2022/09/16 10:56:06;;;;;;;3.67;0.82;;;;;;;16.96;54.02;99586.45;1667250;84;20998;-76
2022/09/16 10:59:10;;;;;;;5.65;0.90;;;;;;;16.97;54.05;99589.44;1665293;83;20956;-76
2022/09/16 11:02:06;;;;;;;3.65;0.98;;;;;;;17.07;54.10;99587.13;1670090;83;20943;-76
2022/09/16 11:05:02;;;;;;;2.27;0.90;;;;;;;17.10;53.95;99593.02;1672303;84;20964;-76
2022/09/16 11:08:04;;;;;;;4.47;0.70;;;;;;;17.08;53.94;99589.66;1632521;86;21017;-76
2022/09/16 11:11:18;;;;;;;1.55;0.53;;;;;;;17.13;53.87;99595.91;1581483;89;21047;-76
2022/09/16 11:14:45;;;;;;;3.70;0.75;;;;;;;17.23;53.99;99584.42;1625163;86;20981;-76
2022/09/16 11:18:15;;;;;;;4.80;0.80;;;;;;;17.32;53.83;99588.63;1628164;86;21827;-76
2022/09/16 11:21:08;;;;;;;2.67;0.60;;;;;;;17.39;53.87;99587.80;1626482;84;20998;-76
2022/09/16 11:24:28;;;;;;;4.55;0.57;;;;;;;17.52;53.75;99590.88;1630570;86;20946;-76
2022/09/16 11:27:40;;;;;;;2.52;0.53;;;;;;;17.47;53.56;99594.71;1632938;86;20917;-76
2022/09/16 11:30:29;;;;;;;1.98;0.90;;;;;;;17.34;53.50;99595.91;1630556;86;20899;-76
2022/09/16 11:33:22;;;;;;;2.00;0.60;;;;;;;17.20;53.23;99591.50;1626927;86;21138;-76
2022/09/16 11:36:13;;;;;;;2.50;0.70;;;;;;;17.12;53.36;99598.15;1619493;86;21068;-76
2022/09/16 11:39:30;;;;;;;2.83;0.95;;;;;;;17.06;53.31;99598.05;1630309;86;21133;-77
2022/09/16 11:42:42;;;;;;;4.08;0.68;;;;;;;17.03;53.23;99586.94;1630864;86;21120;-76
2022/09/16 11:45:59;;;;;;;0.90;0.40;;;;;;;16.85;53.15;99593.60;1658720;84;21085;-79
2022/09/16 11:48:52;;;;;;;1.98;0.68;;;;;;;16.81;53.13;99588.19;1671067;83;21516;-78
2022/09/16 11:52:19;;;;;;;2.15;0.70;;;;;;;16.79;53.07;99587.89;1672359;84;21023;-80
2022/09/16 11:55:34;;;;;;;1.85;0.88;;;;;;;16.75;53.14;99592.92;1674888;83;21129;-81
2022/09/16 11:58:47;;;;;;;3.12;0.70;;;;;;;16.72;53.05;99590.02;1675336;83;21094;-82
2022/09/16 12:02:03;;;;;;;3.08;0.90;;;;;;;16.67;53.07;99591.20;1672424;83;21202;-76
2022/09/16 12:04:59;;;;;;;4.62;0.90;;;;;;;16.66;53.03;99589.06;1668328;83;28308;-76
2022/09/16 12:07:51;;;;;;;;;;;;;;;16.62;53.06;99584.10;1669514;83;21062;-76
2022/09/16 12:10:51;;;;;;;1.82;0.72;;;;;;;16.69;53.02;99598.02;1664539;83;20236;-76
2022/09/16 12:13:45;;;;;;;1.40;0.62;;;;;;;16.75;53.06;99583.31;1660955;83;21256;-76
2022/09/16 12:16:50;;;;;;;1.80;0.88;;;;;;;16.78;53.11;99579.69;1668734;84;21543;-76
2022/09/16 12:19:43;;;;;;;3.83;0.60;;;;;;;16.79;53.13;99578.76;1663649;84;21610;-76
2022/09/16 12:22:43;;;;;;;3.40;1.02;;;;;;;16.82;53.08;99569.44;1665318;83;21102;-76
2022/09/16 12:25:42;;;;;;;2.58;0.68;;;;;;;16.85;53.05;99569.27;1671338;83;21019;-76
2022/09/16 12:28:45;;;;;;;3.15;0.60;;;;;;;16.89;53.00;99564.23;1674199;83;21075;-76
2022/09/16 12:31:52;;;;;;;1.62;0.53;;;;;;;16.94;52.90;99548.30;1662617;83;21685;-76
2022/09/16 12:35:01;;;;;;;3.72;0.72;;;;;;;17.00;53.01;99555.77;1668322;84;21135;-76
2022/09/16 12:37:52;;;;;;;2.47;0.62;;;;;;;17.06;52.93;99544.50;1665772;83;21638;-76
2022/09/16 12:40:49;;;;;;;5.12;0.70;;;;;;;17.18;52.75;99545.04;1670681;83;21133;-76
2022/09/16 12:43:42;;;;;;;2.05;0.53;;;;;;;17.28;52.75;99552.33;1658467;84;21579;-75
2022/09/16 12:46:50;;;;;;;1.52;0.60;;;;;;;17.33;52.58;99552.89;1665310;85;21166;-76
2022/09/16 12:49:50;;;;;;;4.70;0.65;;;;;;;17.31;52.48;99537.77;1660112;83;21097;-76
2022/09/16 12:53:02;;;;;;;2.67;0.60;;;;;;;17.33;52.58;99539.82;1663790;85;21304;-75
2022/09/16 12:56:21;;;;;;;2.10;0.60;;;;;;;17.30;52.40;99523.02;1669913;84;21084;-75
2022/09/16 12:59:48;;;;;;;1.42;0.50;;;;;;;17.27;52.33;99530.58;1662167;84;21153;-76
2022/09/16 13:02:41;;;;;;;1.37;0.40;;;;;;;17.23;52.07;99527.78;1661283;83;21062;-76
2022/09/16 13:05:34;;;;;;;3.30;0.65;;;;;;;17.15;51.89;99528.74;1673281;83;22448;-76
2022/09/16 13:08:32;;;;;;;1.72;0.60;;;;;;;17.09;51.94;99529.11;1672929;82;21508;-76
2022/09/16 13:11:27;;;;;;;2.60;0.60;;;;;;;17.03;51.75;99526.86;1675220;83;21138;-76
2022/09/16 13:14:23;;;;;;;3.17;0.50;;;;;;;16.97;51.66;99529.84;1676759;84;21437;-76
2022/09/16 13:17:11;;;;;;;2.10;0.60;;;;;;;16.95;51.53;99522.56;1677525;83;21146;-76
2022/09/16 13:20:12;;;;;;;3.45;0.50;;;;;;;16.93;51.65;99517.43;1676330;82;21720;-75
2022/09/16 13:23:20;;;;;;;1.80;0.50;;;;;;;16.94;51.69;99519.11;1677993;83;21113;-75
2022/09/16 13:26:08;;;;;;;2.22;0.50;;;;;;;16.95;51.62;99515.56;1677689;84;21602;-75
2022/09/16 13:28:56;;;;;;;2.15;0.35;;;;;;;16.91;51.55;99525.82;1678105;83;21031;-76
2022/09/16 13:31:48;;;;;;;5.08;0.70;;;;;;;16.85;51.50;99523.11;1674011;84;21082;-75
2022/09/16 13:34:32;;;;;;;2.65;0.75;;;;;;;16.79;51.53;99522.63;1669953;84;21562;-76
2022/09/16 13:37:23;;;;;;;1.65;0.57;;;;;;;16.69;51.46;99517.10;1680862;83;21059;-75